sensor_id;sensor_type;location;lat;lon;timestamp;P1;durP1;ratioP1;P2;durP2;ratioP2
79533;SDS011;68982;52.160;6.736;2023-05-07T00:00:00;15.98;;;12.88;;
79533;SDS011;68982;52.160;6.736;2023-05-07T00:02:26;17.52;;;13.23;;
79533;SDS011;68982;52.160;6.736;2023-05-07T00:04:51;16.92;;;13.48;;
79533;SDS011;68982;52.160;6.736;2023-05-07T00:07:17;15.63;;;13.13;;
79533;SDS011;68982;52.160;6.736;2023-05-07T00:09:42;15.27;;;12.52;;
79533;SDS011;68982;52.160;6.736;2023-05-07T00:12:07;17.27;;;12.87;;
79533;SDS011;68982;52.160;6.736;2023-05-07T00:14:33;14.43;;;12.50;;
79533;SDS011;68982;52.160;6.736;2023-05-07T00:16:58;14.60;;;12.18;;
79533;SDS011;68982;52.160;6.736;2023-05-07T00:19:23;14.18;;;11.98;;
79533;SDS011;68982;52.160;6.736;2023-05-07T00:21:49;16.13;;;13.13;;
79533;SDS011;68982;52.160;6.736;2023-05-07T00:24:14;15.10;;;12.82;;
79533;SDS011;68982;52.160;6.736;2023-05-07T00:26:40;15.20;;;13.07;;
79533;SDS011;68982;52.160;6.736;2023-05-07T00:29:05;12.65;;;11.10;;
79533;SDS011;68982;52.160;6.736;2023-05-07T00:31:30;14.73;;;12.33;;
79533;SDS011;68982;52.160;6.736;2023-05-07T00:33:56;13.77;;;12.05;;
79533;SDS011;68982;52.160;6.736;2023-05-07T00:36:21;16.35;;;13.35;;
79533;SDS011;68982;52.160;6.736;2023-05-07T00:38:46;15.43;;;12.93;;
79533;SDS011;68982;52.160;6.736;2023-05-07T00:41:12;16.77;;;12.90;;
79533;SDS011;68982;52.160;6.736;2023-05-07T00:43:37;13.90;;;11.80;;
79533;SDS011;68982;52.160;6.736;2023-05-07T00:46:02;14.30;;;12.00;;
79533;SDS011;68982;52.160;6.736;2023-05-07T00:48:28;14.82;;;12.50;;
79533;SDS011;68982;52.160;6.736;2023-05-07T00:50:53;14.23;;;12.52;;
79533;SDS011;68982;52.160;6.736;2023-05-07T00:53:19;14.48;;;11.60;;
79533;SDS011;68982;52.160;6.736;2023-05-07T00:55:45;14.77;;;13.15;;
79533;SDS011;68982;52.160;6.736;2023-05-07T00:58:11;14.80;;;13.00;;
79533;SDS011;68982;52.160;6.736;2023-05-07T01:00:36;15.50;;;13.90;;
79533;SDS011;68982;52.160;6.736;2023-05-07T01:03:01;15.00;;;13.00;;
79533;SDS011;68982;52.160;6.736;2023-05-07T01:05:27;11.32;;;9.93;;
79533;SDS011;68982;52.160;6.736;2023-05-07T01:07:55;14.00;;;12.32;;
79533;SDS011;68982;52.160;6.736;2023-05-07T01:10:21;14.95;;;12.95;;
79533;SDS011;68982;52.160;6.736;2023-05-07T01:12:47;14.40;;;12.63;;
79533;SDS011;68982;52.160;6.736;2023-05-07T01:15:14;13.80;;;12.07;;
79533;SDS011;68982;52.160;6.736;2023-05-07T01:17:41;14.20;;;12.70;;
79533;SDS011;68982;52.160;6.736;2023-05-07T01:20:07;16.33;;;13.70;;
79533;SDS011;68982;52.160;6.736;2023-05-07T01:22:35;14.73;;;12.40;;
79533;SDS011;68982;52.160;6.736;2023-05-07T01:25:02;15.73;;;13.88;;
79533;SDS011;68982;52.160;6.736;2023-05-07T01:27:28;14.32;;;12.10;;
79533;SDS011;68982;52.160;6.736;2023-05-07T01:29:54;13.70;;;11.52;;
79533;SDS011;68982;52.160;6.736;2023-05-07T01:32:21;19.05;;;13.48;;
79533;SDS011;68982;52.160;6.736;2023-05-07T01:35:09;16.02;;;13.50;;
79533;SDS011;68982;52.160;6.736;2023-05-07T01:37:39;14.98;;;13.00;;
79533;SDS011;68982;52.160;6.736;2023-05-07T01:40:05;16.95;;;14.32;;
79533;SDS011;68982;52.160;6.736;2023-05-07T01:42:32;18.70;;;14.95;;
79533;SDS011;68982;52.160;6.736;2023-05-07T01:44:58;17.80;;;14.85;;
79533;SDS011;68982;52.160;6.736;2023-05-07T01:47:24;18.77;;;15.32;;
79533;SDS011;68982;52.160;6.736;2023-05-07T01:49:50;17.88;;;15.32;;
79533;SDS011;68982;52.160;6.736;2023-05-07T01:52:16;16.23;;;13.15;;
79533;SDS011;68982;52.160;6.736;2023-05-07T01:54:41;18.38;;;14.65;;
79533;SDS011;68982;52.160;6.736;2023-05-07T01:57:07;15.77;;;13.35;;
79533;SDS011;68982;52.160;6.736;2023-05-07T01:59:32;18.27;;;14.52;;
79533;SDS011;68982;52.160;6.736;2023-05-07T02:01:58;18.63;;;15.82;;
79533;SDS011;68982;52.160;6.736;2023-05-07T02:04:23;16.43;;;13.87;;
79533;SDS011;68982;52.160;6.736;2023-05-07T02:06:49;18.05;;;15.15;;
79533;SDS011;68982;52.160;6.736;2023-05-07T02:09:15;17.23;;;14.20;;
79533;SDS011;68982;52.160;6.736;2023-05-07T02:11:40;18.50;;;15.20;;
79533;SDS011;68982;52.160;6.736;2023-05-07T02:14:06;18.05;;;15.00;;
79533;SDS011;68982;52.160;6.736;2023-05-07T02:16:31;17.75;;;13.90;;
79533;SDS011;68982;52.160;6.736;2023-05-07T02:18:56;17.93;;;13.77;;
79533;SDS011;68982;52.160;6.736;2023-05-07T02:21:23;18.30;;;14.50;;
79533;SDS011;68982;52.160;6.736;2023-05-07T02:23:48;18.02;;;13.75;;
79533;SDS011;68982;52.160;6.736;2023-05-07T02:26:14;19.58;;;14.82;;
79533;SDS011;68982;52.160;6.736;2023-05-07T02:28:39;18.25;;;14.02;;
79533;SDS011;68982;52.160;6.736;2023-05-07T02:31:04;16.93;;;12.73;;
79533;SDS011;68982;52.160;6.736;2023-05-07T02:33:30;16.42;;;13.60;;
79533;SDS011;68982;52.160;6.736;2023-05-07T02:35:55;17.90;;;13.98;;
79533;SDS011;68982;52.160;6.736;2023-05-07T02:38:21;16.15;;;11.93;;
79533;SDS011;68982;52.160;6.736;2023-05-07T02:40:47;15.93;;;12.35;;
79533;SDS011;68982;52.160;6.736;2023-05-07T02:43:12;17.13;;;12.30;;
79533;SDS011;68982;52.160;6.736;2023-05-07T02:45:38;16.98;;;12.55;;
79533;SDS011;68982;52.160;6.736;2023-05-07T02:48:04;18.25;;;13.32;;
79533;SDS011;68982;52.160;6.736;2023-05-07T02:50:30;16.02;;;12.18;;
79533;SDS011;68982;52.160;6.736;2023-05-07T02:52:57;14.77;;;12.23;;
79533;SDS011;68982;52.160;6.736;2023-05-07T02:55:23;15.73;;;12.13;;
79533;SDS011;68982;52.160;6.736;2023-05-07T02:57:48;18.00;;;12.07;;
79533;SDS011;68982;52.160;6.736;2023-05-07T03:00:17;14.23;;;11.47;;
79533;SDS011;68982;52.160;6.736;2023-05-07T03:02:44;15.45;;;10.98;;
79533;SDS011;68982;52.160;6.736;2023-05-07T03:05:10;16.23;;;11.88;;
79533;SDS011;68982;52.160;6.736;2023-05-07T03:07:35;19.92;;;12.55;;
79533;SDS011;68982;52.160;6.736;2023-05-07T03:10:01;18.40;;;12.57;;
79533;SDS011;68982;52.160;6.736;2023-05-07T03:12:27;17.80;;;11.43;;
79533;SDS011;68982;52.160;6.736;2023-05-07T03:14:52;18.17;;;11.67;;
79533;SDS011;68982;52.160;6.736;2023-05-07T03:17:17;15.70;;;11.13;;
79533;SDS011;68982;52.160;6.736;2023-05-07T03:19:43;16.40;;;11.90;;
79533;SDS011;68982;52.160;6.736;2023-05-07T03:22:08;15.93;;;11.23;;
79533;SDS011;68982;52.160;6.736;2023-05-07T03:24:33;15.18;;;11.23;;
79533;SDS011;68982;52.160;6.736;2023-05-07T03:26:59;15.52;;;11.13;;
79533;SDS011;68982;52.160;6.736;2023-05-07T03:29:26;19.00;;;12.05;;
79533;SDS011;68982;52.160;6.736;2023-05-07T03:31:51;18.08;;;12.43;;
79533;SDS011;68982;52.160;6.736;2023-05-07T03:34:16;18.02;;;10.85;;
79533;SDS011;68982;52.160;6.736;2023-05-07T03:36:46;19.02;;;12.80;;
79533;SDS011;68982;52.160;6.736;2023-05-07T03:39:12;16.52;;;12.38;;
79533;SDS011;68982;52.160;6.736;2023-05-07T03:41:37;17.73;;;12.83;;
79533;SDS011;68982;52.160;6.736;2023-05-07T03:44:03;17.45;;;12.15;;
79533;SDS011;68982;52.160;6.736;2023-05-07T03:46:28;18.73;;;12.68;;
79533;SDS011;68982;52.160;6.736;2023-05-07T03:48:54;18.93;;;13.10;;
79533;SDS011;68982;52.160;6.736;2023-05-07T03:51:19;17.60;;;12.00;;
79533;SDS011;68982;52.160;6.736;2023-05-07T03:53:44;20.55;;;13.10;;
79533;SDS011;68982;52.160;6.736;2023-05-07T03:56:10;20.40;;;13.40;;
79533;SDS011;68982;52.160;6.736;2023-05-07T03:58:35;20.43;;;13.47;;
79533;SDS011;68982;52.160;6.736;2023-05-07T04:01:00;19.87;;;14.43;;
79533;SDS011;68982;52.160;6.736;2023-05-07T04:03:26;18.55;;;13.40;;
79533;SDS011;68982;52.160;6.736;2023-05-07T04:05:51;22.63;;;14.35;;
79533;SDS011;68982;52.160;6.736;2023-05-07T04:08:16;19.33;;;12.27;;
79533;SDS011;68982;52.160;6.736;2023-05-07T04:10:42;21.53;;;13.67;;
79533;SDS011;68982;52.160;6.736;2023-05-07T04:13:07;19.30;;;13.30;;
79533;SDS011;68982;52.160;6.736;2023-05-07T04:15:32;21.45;;;13.60;;
79533;SDS011;68982;52.160;6.736;2023-05-07T04:17:57;22.37;;;14.10;;
79533;SDS011;68982;52.160;6.736;2023-05-07T04:20:23;21.37;;;13.87;;
79533;SDS011;68982;52.160;6.736;2023-05-07T04:22:48;24.93;;;14.40;;
79533;SDS011;68982;52.160;6.736;2023-05-07T04:25:13;22.93;;;14.10;;
79533;SDS011;68982;52.160;6.736;2023-05-07T04:27:41;22.52;;;15.63;;
79533;SDS011;68982;52.160;6.736;2023-05-07T04:30:06;22.53;;;15.60;;
79533;SDS011;68982;52.160;6.736;2023-05-07T04:32:32;23.27;;;14.90;;
79533;SDS011;68982;52.160;6.736;2023-05-07T04:34:57;23.93;;;15.53;;
79533;SDS011;68982;52.160;6.736;2023-05-07T04:37:23;21.73;;;15.10;;
79533;SDS011;68982;52.160;6.736;2023-05-07T04:39:48;22.55;;;15.48;;
79533;SDS011;68982;52.160;6.736;2023-05-07T04:42:16;19.77;;;13.00;;
79533;SDS011;68982;52.160;6.736;2023-05-07T04:44:43;21.90;;;15.50;;
79533;SDS011;68982;52.160;6.736;2023-05-07T04:47:09;18.67;;;12.80;;
79533;SDS011;68982;52.160;6.736;2023-05-07T04:49:35;22.13;;;14.25;;
79533;SDS011;68982;52.160;6.736;2023-05-07T04:52:00;20.00;;;13.73;;
79533;SDS011;68982;52.160;6.736;2023-05-07T04:54:26;25.50;;;15.70;;
79533;SDS011;68982;52.160;6.736;2023-05-07T04:56:51;20.75;;;14.75;;
79533;SDS011;68982;52.160;6.736;2023-05-07T04:59:16;22.77;;;14.50;;
79533;SDS011;68982;52.160;6.736;2023-05-07T05:01:42;24.33;;;16.13;;
79533;SDS011;68982;52.160;6.736;2023-05-07T05:04:07;17.00;;;11.43;;
79533;SDS011;68982;52.160;6.736;2023-05-07T05:06:32;21.40;;;14.77;;
79533;SDS011;68982;52.160;6.736;2023-05-07T05:08:58;24.25;;;15.60;;
79533;SDS011;68982;52.160;6.736;2023-05-07T05:11:23;21.20;;;12.80;;
79533;SDS011;68982;52.160;6.736;2023-05-07T05:13:48;21.48;;;14.52;;
79533;SDS011;68982;52.160;6.736;2023-05-07T05:16:14;23.77;;;15.55;;
79533;SDS011;68982;52.160;6.736;2023-05-07T05:18:40;25.42;;;16.58;;
79533;SDS011;68982;52.160;6.736;2023-05-07T05:21:05;22.98;;;15.75;;
79533;SDS011;68982;52.160;6.736;2023-05-07T05:23:31;23.33;;;15.67;;
79533;SDS011;68982;52.160;6.736;2023-05-07T05:25:56;23.92;;;16.17;;
79533;SDS011;68982;52.160;6.736;2023-05-07T05:28:25;23.13;;;16.25;;
79533;SDS011;68982;52.160;6.736;2023-05-07T05:30:50;24.45;;;15.48;;
79533;SDS011;68982;52.160;6.736;2023-05-07T05:33:15;20.65;;;13.95;;
79533;SDS011;68982;52.160;6.736;2023-05-07T05:35:41;20.55;;;14.50;;
79533;SDS011;68982;52.160;6.736;2023-05-07T05:38:07;22.67;;;16.02;;
79533;SDS011;68982;52.160;6.736;2023-05-07T05:40:32;23.10;;;15.57;;
79533;SDS011;68982;52.160;6.736;2023-05-07T05:42:58;25.02;;;16.35;;
79533;SDS011;68982;52.160;6.736;2023-05-07T05:45:24;22.98;;;15.27;;
79533;SDS011;68982;52.160;6.736;2023-05-07T05:47:49;22.38;;;15.00;;
79533;SDS011;68982;52.160;6.736;2023-05-07T05:50:15;24.60;;;15.50;;
79533;SDS011;68982;52.160;6.736;2023-05-07T05:52:40;22.67;;;15.32;;
79533;SDS011;68982;52.160;6.736;2023-05-07T05:55:06;24.38;;;16.25;;
79533;SDS011;68982;52.160;6.736;2023-05-07T05:57:31;21.45;;;14.68;;
79533;SDS011;68982;52.160;6.736;2023-05-07T05:59:57;27.13;;;16.67;;
79533;SDS011;68982;52.160;6.736;2023-05-07T06:02:22;24.83;;;15.35;;
79533;SDS011;68982;52.160;6.736;2023-05-07T06:04:48;23.33;;;16.00;;
79533;SDS011;68982;52.160;6.736;2023-05-07T06:07:13;25.38;;;15.40;;
79533;SDS011;68982;52.160;6.736;2023-05-07T06:09:39;17.98;;;12.35;;
79533;SDS011;68982;52.160;6.736;2023-05-07T06:12:04;20.85;;;15.05;;
79533;SDS011;68982;52.160;6.736;2023-05-07T06:14:30;22.80;;;15.82;;
79533;SDS011;68982;52.160;6.736;2023-05-07T06:16:55;23.70;;;15.30;;
79533;SDS011;68982;52.160;6.736;2023-05-07T06:19:21;23.58;;;15.23;;
79533;SDS011;68982;52.160;6.736;2023-05-07T06:21:48;26.67;;;16.65;;
79533;SDS011;68982;52.160;6.736;2023-05-07T06:24:14;26.60;;;16.60;;
79533;SDS011;68982;52.160;6.736;2023-05-07T06:26:39;23.50;;;15.63;;
79533;SDS011;68982;52.160;6.736;2023-05-07T06:29:05;24.70;;;15.50;;
79533;SDS011;68982;52.160;6.736;2023-05-07T06:31:31;22.85;;;15.13;;
79533;SDS011;68982;52.160;6.736;2023-05-07T06:33:57;23.13;;;15.13;;
79533;SDS011;68982;52.160;6.736;2023-05-07T06:36:22;19.23;;;13.52;;
79533;SDS011;68982;52.160;6.736;2023-05-07T06:38:48;24.52;;;16.58;;
79533;SDS011;68982;52.160;6.736;2023-05-07T06:41:13;21.83;;;15.48;;
79533;SDS011;68982;52.160;6.736;2023-05-07T06:43:38;22.70;;;14.20;;
79533;SDS011;68982;52.160;6.736;2023-05-07T06:46:04;25.20;;;15.97;;
79533;SDS011;68982;52.160;6.736;2023-05-07T06:48:30;25.08;;;17.27;;
79533;SDS011;68982;52.160;6.736;2023-05-07T06:50:55;23.75;;;14.57;;
79533;SDS011;68982;52.160;6.736;2023-05-07T06:53:22;23.17;;;16.23;;
79533;SDS011;68982;52.160;6.736;2023-05-07T06:55:48;23.10;;;16.13;;
79533;SDS011;68982;52.160;6.736;2023-05-07T06:58:13;22.57;;;14.57;;
79533;SDS011;68982;52.160;6.736;2023-05-07T07:00:39;22.45;;;15.90;;
79533;SDS011;68982;52.160;6.736;2023-05-07T07:03:05;22.05;;;15.65;;
79533;SDS011;68982;52.160;6.736;2023-05-07T07:05:31;25.58;;;15.88;;
79533;SDS011;68982;52.160;6.736;2023-05-07T07:07:56;21.08;;;14.45;;
79533;SDS011;68982;52.160;6.736;2023-05-07T07:10:22;24.57;;;15.73;;
79533;SDS011;68982;52.160;6.736;2023-05-07T07:12:48;24.67;;;16.20;;
79533;SDS011;68982;52.160;6.736;2023-05-07T07:15:14;23.10;;;16.10;;
79533;SDS011;68982;52.160;6.736;2023-05-07T07:17:40;26.55;;;16.23;;
79533;SDS011;68982;52.160;6.736;2023-05-07T07:20:05;24.02;;;15.38;;
79533;SDS011;68982;52.160;6.736;2023-05-07T07:22:31;26.35;;;16.42;;
79533;SDS011;68982;52.160;6.736;2023-05-07T07:24:57;28.40;;;19.15;;
79533;SDS011;68982;52.160;6.736;2023-05-07T07:27:22;31.83;;;22.05;;
79533;SDS011;68982;52.160;6.736;2023-05-07T07:29:47;26.05;;;18.13;;
79533;SDS011;68982;52.160;6.736;2023-05-07T07:32:13;23.40;;;15.40;;
79533;SDS011;68982;52.160;6.736;2023-05-07T07:34:38;26.75;;;16.35;;
79533;SDS011;68982;52.160;6.736;2023-05-07T07:37:03;23.92;;;17.38;;
79533;SDS011;68982;52.160;6.736;2023-05-07T07:39:31;26.63;;;17.52;;
79533;SDS011;68982;52.160;6.736;2023-05-07T07:41:57;22.77;;;15.30;;
79533;SDS011;68982;52.160;6.736;2023-05-07T07:44:22;22.40;;;15.38;;
79533;SDS011;68982;52.160;6.736;2023-05-07T07:46:48;25.73;;;16.00;;
79533;SDS011;68982;52.160;6.736;2023-05-07T07:49:13;22.40;;;14.90;;
79533;SDS011;68982;52.160;6.736;2023-05-07T07:51:39;22.98;;;15.70;;
79533;SDS011;68982;52.160;6.736;2023-05-07T07:54:05;25.50;;;15.77;;
79533;SDS011;68982;52.160;6.736;2023-05-07T07:56:31;25.15;;;16.95;;
79533;SDS011;68982;52.160;6.736;2023-05-07T07:58:58;23.83;;;16.88;;
79533;SDS011;68982;52.160;6.736;2023-05-07T08:01:24;21.45;;;14.35;;
79533;SDS011;68982;52.160;6.736;2023-05-07T08:03:49;24.08;;;16.02;;
79533;SDS011;68982;52.160;6.736;2023-05-07T08:06:15;21.58;;;15.00;;
79533;SDS011;68982;52.160;6.736;2023-05-07T08:08:40;23.40;;;15.27;;
79533;SDS011;68982;52.160;6.736;2023-05-07T08:11:06;20.10;;;14.48;;
79533;SDS011;68982;52.160;6.736;2023-05-07T08:13:31;22.58;;;15.45;;
79533;SDS011;68982;52.160;6.736;2023-05-07T08:15:56;21.85;;;15.77;;
79533;SDS011;68982;52.160;6.736;2023-05-07T08:18:22;20.38;;;15.35;;
79533;SDS011;68982;52.160;6.736;2023-05-07T08:20:49;20.98;;;14.50;;
79533;SDS011;68982;52.160;6.736;2023-05-07T08:23:15;22.08;;;14.23;;
79533;SDS011;68982;52.160;6.736;2023-05-07T08:25:40;23.33;;;16.05;;
79533;SDS011;68982;52.160;6.736;2023-05-07T08:28:07;21.00;;;15.00;;
79533;SDS011;68982;52.160;6.736;2023-05-07T08:30:33;25.88;;;16.02;;
79533;SDS011;68982;52.160;6.736;2023-05-07T08:32:58;23.87;;;15.60;;
79533;SDS011;68982;52.160;6.736;2023-05-07T08:35:23;20.87;;;15.13;;
79533;SDS011;68982;52.160;6.736;2023-05-07T08:37:50;25.83;;;15.38;;
79533;SDS011;68982;52.160;6.736;2023-05-07T08:40:15;21.30;;;15.32;;
79533;SDS011;68982;52.160;6.736;2023-05-07T08:42:41;18.77;;;14.00;;
79533;SDS011;68982;52.160;6.736;2023-05-07T08:45:08;21.17;;;14.95;;
79533;SDS011;68982;52.160;6.736;2023-05-07T08:47:39;19.92;;;15.07;;
79533;SDS011;68982;52.160;6.736;2023-05-07T08:50:10;22.25;;;14.05;;
79533;SDS011;68982;52.160;6.736;2023-05-07T08:52:36;20.83;;;14.70;;
79533;SDS011;68982;52.160;6.736;2023-05-07T08:55:02;19.90;;;13.55;;
79533;SDS011;68982;52.160;6.736;2023-05-07T08:57:28;25.00;;;15.20;;
79533;SDS011;68982;52.160;6.736;2023-05-07T08:59:54;23.58;;;14.40;;
79533;SDS011;68982;52.160;6.736;2023-05-07T09:02:20;20.88;;;14.63;;
79533;SDS011;68982;52.160;6.736;2023-05-07T09:04:45;20.83;;;14.50;;
79533;SDS011;68982;52.160;6.736;2023-05-07T09:07:11;72.10;;;15.88;;
79533;SDS011;68982;52.160;6.736;2023-05-07T09:09:36;28.10;;;14.05;;
79533;SDS011;68982;52.160;6.736;2023-05-07T09:12:02;29.50;;;14.52;;
79533;SDS011;68982;52.160;6.736;2023-05-07T09:14:28;20.63;;;14.73;;
79533;SDS011;68982;52.160;6.736;2023-05-07T09:16:55;21.98;;;13.43;;
79533;SDS011;68982;52.160;6.736;2023-05-07T09:19:24;24.77;;;13.65;;
79533;SDS011;68982;52.160;6.736;2023-05-07T09:22:00;20.92;;;13.23;;
79533;SDS011;68982;52.160;6.736;2023-05-07T09:24:29;17.30;;;13.57;;
79533;SDS011;68982;52.160;6.736;2023-05-07T09:27:00;18.65;;;13.45;;
79533;SDS011;68982;52.160;6.736;2023-05-07T09:29:27;19.80;;;13.68;;
79533;SDS011;68982;52.160;6.736;2023-05-07T09:32:00;18.40;;;13.02;;
79533;SDS011;68982;52.160;6.736;2023-05-07T09:34:28;19.52;;;13.35;;
79533;SDS011;68982;52.160;6.736;2023-05-07T09:36:55;20.58;;;14.07;;
79533;SDS011;68982;52.160;6.736;2023-05-07T09:39:21;18.75;;;13.57;;
79533;SDS011;68982;52.160;6.736;2023-05-07T09:41:47;19.40;;;13.73;;
79533;SDS011;68982;52.160;6.736;2023-05-07T09:44:14;19.95;;;13.63;;
79533;SDS011;68982;52.160;6.736;2023-05-07T09:46:42;22.70;;;13.90;;
79533;SDS011;68982;52.160;6.736;2023-05-07T09:49:10;18.10;;;13.02;;
79533;SDS011;68982;52.160;6.736;2023-05-07T09:51:45;18.38;;;12.68;;
79533;SDS011;68982;52.160;6.736;2023-05-07T09:54:14;16.85;;;12.32;;
79533;SDS011;68982;52.160;6.736;2023-05-07T09:56:40;20.73;;;13.88;;
79533;SDS011;68982;52.160;6.736;2023-05-07T09:59:10;17.73;;;13.50;;
79533;SDS011;68982;52.160;6.736;2023-05-07T10:01:37;16.50;;;12.90;;
79533;SDS011;68982;52.160;6.736;2023-05-07T10:04:05;17.45;;;12.13;;
79533;SDS011;68982;52.160;6.736;2023-05-07T10:06:31;18.75;;;13.07;;
79533;SDS011;68982;52.160;6.736;2023-05-07T10:08:56;19.47;;;13.47;;
79533;SDS011;68982;52.160;6.736;2023-05-07T10:11:22;18.08;;;13.50;;
79533;SDS011;68982;52.160;6.736;2023-05-07T10:13:48;17.27;;;12.35;;
79533;SDS011;68982;52.160;6.736;2023-05-07T10:16:13;17.95;;;12.95;;
79533;SDS011;68982;52.160;6.736;2023-05-07T10:18:40;16.73;;;13.00;;
79533;SDS011;68982;52.160;6.736;2023-05-07T10:21:23;17.80;;;12.98;;
79533;SDS011;68982;52.160;6.736;2023-05-07T10:23:57;16.65;;;11.80;;
79533;SDS011;68982;52.160;6.736;2023-05-07T10:26:24;16.77;;;12.43;;
79533;SDS011;68982;52.160;6.736;2023-05-07T10:28:57;17.20;;;12.13;;
79533;SDS011;68982;52.160;6.736;2023-05-07T10:34:14;20.00;;;13.27;;
79533;SDS011;68982;52.160;6.736;2023-05-07T10:36:44;17.60;;;13.05;;
79533;SDS011;68982;52.160;6.736;2023-05-07T10:39:10;16.27;;;11.32;;
79533;SDS011;68982;52.160;6.736;2023-05-07T10:41:36;14.68;;;11.55;;
79533;SDS011;68982;52.160;6.736;2023-05-07T10:44:01;17.92;;;13.13;;
79533;SDS011;68982;52.160;6.736;2023-05-07T10:46:27;16.23;;;12.10;;
79533;SDS011;68982;52.160;6.736;2023-05-07T10:51:33;13.55;;;10.55;;
79533;SDS011;68982;52.160;6.736;2023-05-07T10:56:34;16.00;;;12.27;;
79533;SDS011;68982;52.160;6.736;2023-05-07T11:01:52;16.48;;;11.55;;
79533;SDS011;68982;52.160;6.736;2023-05-07T11:04:17;17.63;;;11.60;;
79533;SDS011;68982;52.160;6.736;2023-05-07T11:15:01;13.52;;;10.68;;
79533;SDS011;68982;52.160;6.736;2023-05-07T11:17:29;13.00;;;9.77;;
79533;SDS011;68982;52.160;6.736;2023-05-07T11:19:57;13.15;;;9.90;;
79533;SDS011;68982;52.160;6.736;2023-05-07T11:24:57;13.93;;;10.45;;
79533;SDS011;68982;52.160;6.736;2023-05-07T11:27:24;15.27;;;11.32;;
79533;SDS011;68982;52.160;6.736;2023-05-07T11:29:51;14.52;;;10.68;;
79533;SDS011;68982;52.160;6.736;2023-05-07T11:32:22;12.15;;;8.93;;
79533;SDS011;68982;52.160;6.736;2023-05-07T11:34:51;11.68;;;8.65;;
79533;SDS011;68982;52.160;6.736;2023-05-07T11:37:17;12.02;;;9.02;;
79533;SDS011;68982;52.160;6.736;2023-05-07T11:39:43;11.32;;;9.52;;
79533;SDS011;68982;52.160;6.736;2023-05-07T11:42:29;15.27;;;9.48;;
79533;SDS011;68982;52.160;6.736;2023-05-07T11:44:54;14.23;;;10.35;;
79533;SDS011;68982;52.160;6.736;2023-05-07T11:47:20;14.88;;;11.73;;
79533;SDS011;68982;52.160;6.736;2023-05-07T11:49:47;13.25;;;10.57;;
79533;SDS011;68982;52.160;6.736;2023-05-07T11:52:13;14.95;;;10.40;;
79533;SDS011;68982;52.160;6.736;2023-05-07T11:54:39;14.68;;;12.25;;
79533;SDS011;68982;52.160;6.736;2023-05-07T11:57:04;16.00;;;10.95;;
79533;SDS011;68982;52.160;6.736;2023-05-07T11:59:30;14.75;;;9.93;;
79533;SDS011;68982;52.160;6.736;2023-05-07T12:02:03;14.10;;;9.85;;
79533;SDS011;68982;52.160;6.736;2023-05-07T12:04:29;13.07;;;9.67;;
79533;SDS011;68982;52.160;6.736;2023-05-07T12:06:55;13.32;;;10.05;;
79533;SDS011;68982;52.160;6.736;2023-05-07T12:09:20;13.30;;;10.20;;
79533;SDS011;68982;52.160;6.736;2023-05-07T12:11:46;12.63;;;9.15;;
79533;SDS011;68982;52.160;6.736;2023-05-07T12:14:11;10.07;;;8.25;;
79533;SDS011;68982;52.160;6.736;2023-05-07T12:16:36;11.77;;;9.00;;
79533;SDS011;68982;52.160;6.736;2023-05-07T12:19:04;15.38;;;11.75;;
79533;SDS011;68982;52.160;6.736;2023-05-07T12:21:31;15.45;;;11.98;;
79533;SDS011;68982;52.160;6.736;2023-05-07T12:23:56;15.23;;;10.88;;
79533;SDS011;68982;52.160;6.736;2023-05-07T12:26:22;13.40;;;10.20;;
79533;SDS011;68982;52.160;6.736;2023-05-07T12:28:49;15.68;;;10.20;;
79533;SDS011;68982;52.160;6.736;2023-05-07T12:31:14;13.45;;;10.10;;
79533;SDS011;68982;52.160;6.736;2023-05-07T12:33:41;13.20;;;8.98;;
79533;SDS011;68982;52.160;6.736;2023-05-07T12:36:07;12.52;;;9.10;;
79533;SDS011;68982;52.160;6.736;2023-05-07T12:38:36;13.25;;;9.70;;
79533;SDS011;68982;52.160;6.736;2023-05-07T12:41:03;11.32;;;9.18;;
79533;SDS011;68982;52.160;6.736;2023-05-07T12:43:29;11.10;;;8.98;;
79533;SDS011;68982;52.160;6.736;2023-05-07T12:45:56;13.50;;;9.27;;
79533;SDS011;68982;52.160;6.736;2023-05-07T12:48:24;14.15;;;10.85;;
79533;SDS011;68982;52.160;6.736;2023-05-07T12:50:55;14.35;;;10.63;;
79533;SDS011;68982;52.160;6.736;2023-05-07T12:53:25;11.40;;;9.02;;
79533;SDS011;68982;52.160;6.736;2023-05-07T12:55:52;11.68;;;8.90;;
79533;SDS011;68982;52.160;6.736;2023-05-07T12:58:29;11.18;;;8.82;;
79533;SDS011;68982;52.160;6.736;2023-05-07T13:00:56;12.02;;;9.82;;
79533;SDS011;68982;52.160;6.736;2023-05-07T13:03:33;12.63;;;9.52;;
79533;SDS011;68982;52.160;6.736;2023-05-07T13:06:00;11.82;;;9.10;;
79533;SDS011;68982;52.160;6.736;2023-05-07T13:08:28;10.50;;;8.60;;
79533;SDS011;68982;52.160;6.736;2023-05-07T13:10:55;13.75;;;9.77;;
79533;SDS011;68982;52.160;6.736;2023-05-07T13:13:21;10.85;;;9.00;;
79533;SDS011;68982;52.160;6.736;2023-05-07T13:15:47;13.75;;;8.93;;
79533;SDS011;68982;52.160;6.736;2023-05-07T13:18:13;16.80;;;9.60;;
79533;SDS011;68982;52.160;6.736;2023-05-07T13:20:38;11.55;;;8.38;;
79533;SDS011;68982;52.160;6.736;2023-05-07T13:23:03;12.67;;;9.67;;
79533;SDS011;68982;52.160;6.736;2023-05-07T13:25:29;11.35;;;9.13;;
79533;SDS011;68982;52.160;6.736;2023-05-07T13:27:56;13.95;;;9.10;;
79533;SDS011;68982;52.160;6.736;2023-05-07T13:30:22;12.73;;;9.25;;
79533;SDS011;68982;52.160;6.736;2023-05-07T13:32:47;11.07;;;8.98;;
79533;SDS011;68982;52.160;6.736;2023-05-07T13:35:13;14.18;;;10.30;;
79533;SDS011;68982;52.160;6.736;2023-05-07T13:37:39;12.95;;;10.27;;
79533;SDS011;68982;52.160;6.736;2023-05-07T13:40:05;14.48;;;8.98;;
79533;SDS011;68982;52.160;6.736;2023-05-07T13:42:31;12.68;;;9.77;;
79533;SDS011;68982;52.160;6.736;2023-05-07T13:44:56;12.88;;;9.98;;
79533;SDS011;68982;52.160;6.736;2023-05-07T13:47:22;13.25;;;10.15;;
79533;SDS011;68982;52.160;6.736;2023-05-07T13:49:47;10.63;;;8.88;;
79533;SDS011;68982;52.160;6.736;2023-05-07T13:52:15;13.60;;;10.00;;
79533;SDS011;68982;52.160;6.736;2023-05-07T13:54:40;14.07;;;9.68;;
79533;SDS011;68982;52.160;6.736;2023-05-07T13:57:06;13.40;;;10.40;;
79533;SDS011;68982;52.160;6.736;2023-05-07T13:59:31;13.18;;;9.57;;
79533;SDS011;68982;52.160;6.736;2023-05-07T14:01:56;12.70;;;8.80;;
79533;SDS011;68982;52.160;6.736;2023-05-07T14:04:22;12.50;;;8.80;;
79533;SDS011;68982;52.160;6.736;2023-05-07T14:06:47;11.52;;;8.35;;
79533;SDS011;68982;52.160;6.736;2023-05-07T14:09:12;10.65;;;8.00;;
79533;SDS011;68982;52.160;6.736;2023-05-07T14:11:38;12.90;;;8.77;;
79533;SDS011;68982;52.160;6.736;2023-05-07T14:14:04;10.35;;;8.10;;
79533;SDS011;68982;52.160;6.736;2023-05-07T14:16:30;13.30;;;9.20;;
79533;SDS011;68982;52.160;6.736;2023-05-07T14:18:55;12.40;;;8.88;;
79533;SDS011;68982;52.160;6.736;2023-05-07T14:21:22;10.57;;;8.95;;
79533;SDS011;68982;52.160;6.736;2023-05-07T14:23:47;11.13;;;8.27;;
79533;SDS011;68982;52.160;6.736;2023-05-07T14:26:13;10.45;;;8.23;;
79533;SDS011;68982;52.160;6.736;2023-05-07T14:28:38;11.23;;;7.95;;
79533;SDS011;68982;52.160;6.736;2023-05-07T14:31:04;9.75;;;8.00;;
79533;SDS011;68982;52.160;6.736;2023-05-07T14:33:31;9.77;;;7.45;;
79533;SDS011;68982;52.160;6.736;2023-05-07T14:35:56;10.52;;;7.15;;
79533;SDS011;68982;52.160;6.736;2023-05-07T14:38:22;9.55;;;6.90;;